sensor_id;sensor_type;location;lat;lon;timestamp;temperature;humidity
802;DHT22;383;48.766;9.270;2023-02-28T00:00:20;-0.20;71.10
802;DHT22;383;48.766;9.270;2023-02-28T00:02:50;-0.30;71.20
802;DHT22;383;48.766;9.270;2023-02-28T00:05:19;-0.30;71.60
802;DHT22;383;48.766;9.270;2023-02-28T00:07:46;-0.30;72.10
802;DHT22;383;48.766;9.270;2023-02-28T00:10:17;-0.40;71.50
802;DHT22;383;48.766;9.270;2023-02-28T00:12:46;-0.40;71.50
802;DHT22;383;48.766;9.270;2023-02-28T00:15:14;-0.40;72.00
802;DHT22;383;48.766;9.270;2023-02-28T00:17:41;-0.40;72.50
802;DHT22;383;48.766;9.270;2023-02-28T00:20:09;-0.50;72.50
802;DHT22;383;48.766;9.270;2023-02-28T00:22:37;-0.50;72.90
802;DHT22;383;48.766;9.270;2023-02-28T00:25:05;-0.50;73.40
802;DHT22;383;48.766;9.270;2023-02-28T00:27:33;-0.50;73.30
802;DHT22;383;48.766;9.270;2023-02-28T00:30:00;-0.50;73.30
802;DHT22;383;48.766;9.270;2023-02-28T00:32:28;-0.60;73.40
802;DHT22;383;48.766;9.270;2023-02-28T00:34:55;-0.60;73.60
802;DHT22;383;48.766;9.270;2023-02-28T00:37:22;-0.60;73.70
802;DHT22;383;48.766;9.270;2023-02-28T00:39:49;-0.60;74.00
802;DHT22;383;48.766;9.270;2023-02-28T00:42:16;-0.60;74.00
802;DHT22;383;48.766;9.270;2023-02-28T00:44:43;-0.60;74.50
802;DHT22;383;48.766;9.270;2023-02-28T00:47:09;-0.70;74.40
802;DHT22;383;48.766;9.270;2023-02-28T00:49:37;-0.70;74.00
802;DHT22;383;48.766;9.270;2023-02-28T00:52:04;-0.70;74.40
802;DHT22;383;48.766;9.270;2023-02-28T00:54:31;-0.80;75.20
802;DHT22;383;48.766;9.270;2023-02-28T00:56:58;-0.80;75.00
802;DHT22;383;48.766;9.270;2023-02-28T00:59:25;-0.80;75.00
802;DHT22;383;48.766;9.270;2023-02-28T01:01:52;-0.80;75.20
802;DHT22;383;48.766;9.270;2023-02-28T01:04:18;-0.80;75.70
802;DHT22;383;48.766;9.270;2023-02-28T01:06:46;-0.80;75.40
802;DHT22;383;48.766;9.270;2023-02-28T01:09:13;-0.80;75.40
802;DHT22;383;48.766;9.270;2023-02-28T01:11:41;-0.80;75.60
802;DHT22;383;48.766;9.270;2023-02-28T01:14:12;-0.80;75.40
802;DHT22;383;48.766;9.270;2023-02-28T01:16:39;-0.90;75.60
802;DHT22;383;48.766;9.270;2023-02-28T01:19:06;-0.80;76.00
802;DHT22;383;48.766;9.270;2023-02-28T01:21:33;-0.90;75.80
802;DHT22;383;48.766;9.270;2023-02-28T01:24:02;-0.90;76.30
802;DHT22;383;48.766;9.270;2023-02-28T01:26:31;-0.80;76.30
802;DHT22;383;48.766;9.270;2023-02-28T01:28:58;-0.80;76.50
802;DHT22;383;48.766;9.270;2023-02-28T01:31:25;-0.90;76.50
802;DHT22;383;48.766;9.270;2023-02-28T01:33:52;-0.90;76.70
802;DHT22;383;48.766;9.270;2023-02-28T01:36:21;-0.90;76.60
802;DHT22;383;48.766;9.270;2023-02-28T01:38:49;-0.90;76.90
802;DHT22;383;48.766;9.270;2023-02-28T01:41:19;-0.90;77.10
802;DHT22;383;48.766;9.270;2023-02-28T01:43:55;-0.90;77.10
802;DHT22;383;48.766;9.270;2023-02-28T01:46:22;-1.00;77.30
802;DHT22;383;48.766;9.270;2023-02-28T01:48:51;-1.00;77.50
802;DHT22;383;48.766;9.270;2023-02-28T01:51:21;-1.00;77.90
802;DHT22;383;48.766;9.270;2023-02-28T01:53:51;-1.00;78.10
802;DHT22;383;48.766;9.270;2023-02-28T01:56:23;-1.00;78.20
802;DHT22;383;48.766;9.270;2023-02-28T01:58:51;-1.00;78.20
802;DHT22;383;48.766;9.270;2023-02-28T02:01:19;-1.00;78.50
802;DHT22;383;48.766;9.270;2023-02-28T02:03:48;-1.00;78.50
802;DHT22;383;48.766;9.270;2023-02-28T02:06:21;-0.90;78.50
802;DHT22;383;48.766;9.270;2023-02-28T02:08:47;-0.90;77.80
802;DHT22;383;48.766;9.270;2023-02-28T02:11:18;-0.80;77.40
802;DHT22;383;48.766;9.270;2023-02-28T02:16:54;-0.80;77.80
802;DHT22;383;48.766;9.270;2023-02-28T02:19:44;-0.80;78.60
802;DHT22;383;48.766;9.270;2023-02-28T02:22:26;-0.80;78.90
802;DHT22;383;48.766;9.270;2023-02-28T02:25:22;-0.70;78.30
802;DHT22;383;48.766;9.270;2023-02-28T02:28:10;-0.60;76.90
802;DHT22;383;48.766;9.270;2023-02-28T02:36:33;-0.50;77.10
802;DHT22;383;48.766;9.270;2023-02-28T02:39:06;-0.40;76.60
802;DHT22;383;48.766;9.270;2023-02-28T02:41:39;-0.40;76.30
802;DHT22;383;48.766;9.270;2023-02-28T02:44:12;-0.30;76.50
802;DHT22;383;48.766;9.270;2023-02-28T02:46:43;-0.30;76.60
802;DHT22;383;48.766;9.270;2023-02-28T02:49:16;-0.30;76.10
802;DHT22;383;48.766;9.270;2023-02-28T02:51:47;-0.20;76.00
802;DHT22;383;48.766;9.270;2023-02-28T02:54:19;-0.20;75.80
802;DHT22;383;48.766;9.270;2023-02-28T02:56:48;-0.10;75.80
802;DHT22;383;48.766;9.270;2023-02-28T02:59:18;-0.10;75.40
802;DHT22;383;48.766;9.270;2023-02-28T03:01:49;-0.10;75.70
802;DHT22;383;48.766;9.270;2023-02-28T03:04:19;-0.10;76.00
802;DHT22;383;48.766;9.270;2023-02-28T03:06:50;0.00;75.70
802;DHT22;383;48.766;9.270;2023-02-28T03:09:20;0.00;75.60
802;DHT22;383;48.766;9.270;2023-02-28T03:11:47;0.00;75.40
802;DHT22;383;48.766;9.270;2023-02-28T03:14:25;0.10;75.20
802;DHT22;383;48.766;9.270;2023-02-28T03:17:09;0.10;75.30
802;DHT22;383;48.766;9.270;2023-02-28T03:19:51;0.10;75.40
802;DHT22;383;48.766;9.270;2023-02-28T03:22:34;0.10;75.40
802;DHT22;383;48.766;9.270;2023-02-28T03:25:08;0.10;75.60
802;DHT22;383;48.766;9.270;2023-02-28T03:27:39;0.20;75.40
802;DHT22;383;48.766;9.270;2023-02-28T03:30:12;0.20;75.40
802;DHT22;383;48.766;9.270;2023-02-28T03:32:45;0.10;75.60
802;DHT22;383;48.766;9.270;2023-02-28T03:35:19;0.10;76.00
802;DHT22;383;48.766;9.270;2023-02-28T03:37:52;0.20;76.10
802;DHT22;383;48.766;9.270;2023-02-28T03:40:21;0.20;76.00
802;DHT22;383;48.766;9.270;2023-02-28T03:42:53;0.20;76.00
802;DHT22;383;48.766;9.270;2023-02-28T03:45:24;0.30;75.70
802;DHT22;383;48.766;9.270;2023-02-28T03:47:54;0.30;75.80
802;DHT22;383;48.766;9.270;2023-02-28T03:50:24;0.20;76.30
802;DHT22;383;48.766;9.270;2023-02-28T03:52:58;0.20;76.20
802;DHT22;383;48.766;9.270;2023-02-28T03:55:33;0.20;76.20
802;DHT22;383;48.766;9.270;2023-02-28T03:58:05;0.20;76.50
802;DHT22;383;48.766;9.270;2023-02-28T04:00:37;0.20;76.50
802;DHT22;383;48.766;9.270;2023-02-28T04:03:06;0.30;76.60
802;DHT22;383;48.766;9.270;2023-02-28T04:05:33;0.20;76.30
802;DHT22;383;48.766;9.270;2023-02-28T04:08:11;0.20;77.10
802;DHT22;383;48.766;9.270;2023-02-28T04:10:38;0.20;76.90
802;DHT22;383;48.766;9.270;2023-02-28T04:13:05;0.30;76.60
802;DHT22;383;48.766;9.270;2023-02-28T04:15:32;0.30;76.60
802;DHT22;383;48.766;9.270;2023-02-28T04:17:58;0.30;77.10
802;DHT22;383;48.766;9.270;2023-02-28T04:20:25;0.40;76.50
802;DHT22;383;48.766;9.270;2023-02-28T04:22:52;0.30;76.30
802;DHT22;383;48.766;9.270;2023-02-28T04:25:20;0.40;76.70
802;DHT22;383;48.766;9.270;2023-02-28T04:27:46;0.40;76.20
802;DHT22;383;48.766;9.270;2023-02-28T04:30:13;0.30;76.70
802;DHT22;383;48.766;9.270;2023-02-28T04:32:40;0.40;76.30
802;DHT22;383;48.766;9.270;2023-02-28T04:35:07;0.40;76.60
802;DHT22;383;48.766;9.270;2023-02-28T04:37:34;0.40;76.70
802;DHT22;383;48.766;9.270;2023-02-28T04:40:02;0.40;76.50
802;DHT22;383;48.766;9.270;2023-02-28T04:42:30;0.50;76.20
802;DHT22;383;48.766;9.270;2023-02-28T04:45:01;0.50;76.60
802;DHT22;383;48.766;9.270;2023-02-28T04:47:28;0.50;76.50
802;DHT22;383;48.766;9.270;2023-02-28T04:49:55;0.60;76.10
802;DHT22;383;48.766;9.270;2023-02-28T04:52:21;0.60;76.10
802;DHT22;383;48.766;9.270;2023-02-28T04:54:48;0.50;76.50
802;DHT22;383;48.766;9.270;2023-02-28T04:57:15;0.50;76.30
802;DHT22;383;48.766;9.270;2023-02-28T04:59:43;0.60;76.20
802;DHT22;383;48.766;9.270;2023-02-28T05:02:10;0.60;76.30
802;DHT22;383;48.766;9.270;2023-02-28T05:04:36;0.60;76.90
802;DHT22;383;48.766;9.270;2023-02-28T05:07:03;0.70;76.30
802;DHT22;383;48.766;9.270;2023-02-28T05:09:30;0.60;76.30
802;DHT22;383;48.766;9.270;2023-02-28T05:11:58;0.50;76.70
802;DHT22;383;48.766;9.270;2023-02-28T05:14:25;0.50;76.60
802;DHT22;383;48.766;9.270;2023-02-28T05:16:53;0.60;76.90
802;DHT22;383;48.766;9.270;2023-02-28T05:19:19;0.50;77.00
802;DHT22;383;48.766;9.270;2023-02-28T05:21:51;0.50;77.40
802;DHT22;383;48.766;9.270;2023-02-28T05:24:18;0.50;77.40
802;DHT22;383;48.766;9.270;2023-02-28T05:26:49;0.60;77.00
802;DHT22;383;48.766;9.270;2023-02-28T05:29:16;0.50;77.40
802;DHT22;383;48.766;9.270;2023-02-28T05:31:42;0.40;78.10
802;DHT22;383;48.766;9.270;2023-02-28T05:34:10;0.50;77.90
802;DHT22;383;48.766;9.270;2023-02-28T05:36:38;0.50;78.10
802;DHT22;383;48.766;9.270;2023-02-28T05:39:05;0.60;77.40
802;DHT22;383;48.766;9.270;2023-02-28T05:41:32;0.60;77.50
802;DHT22;383;48.766;9.270;2023-02-28T05:44:00;0.70;77.30
802;DHT22;383;48.766;9.270;2023-02-28T05:46:27;0.60;77.10
802;DHT22;383;48.766;9.270;2023-02-28T05:48:53;0.60;77.30
802;DHT22;383;48.766;9.270;2023-02-28T05:51:22;0.60;77.70
802;DHT22;383;48.766;9.270;2023-02-28T05:53:49;0.70;77.50
802;DHT22;383;48.766;9.270;2023-02-28T05:56:15;0.70;77.30
802;DHT22;383;48.766;9.270;2023-02-28T05:58:42;0.80;76.90
802;DHT22;383;48.766;9.270;2023-02-28T06:01:23;0.80;77.30
802;DHT22;383;48.766;9.270;2023-02-28T06:03:50;0.80;76.60
802;DHT22;383;48.766;9.270;2023-02-28T06:06:17;0.80;76.30
802;DHT22;383;48.766;9.270;2023-02-28T06:08:45;0.90;76.50
802;DHT22;383;48.766;9.270;2023-02-28T06:11:12;0.90;76.30
802;DHT22;383;48.766;9.270;2023-02-28T06:13:39;0.80;76.30
802;DHT22;383;48.766;9.270;2023-02-28T06:16:07;0.90;76.30
802;DHT22;383;48.766;9.270;2023-02-28T06:18:34;0.90;76.30
802;DHT22;383;48.766;9.270;2023-02-28T06:21:01;0.90;77.10
802;DHT22;383;48.766;9.270;2023-02-28T06:23:28;0.80;77.30
802;DHT22;383;48.766;9.270;2023-02-28T06:25:56;0.90;77.40
802;DHT22;383;48.766;9.270;2023-02-28T06:28:24;1.00;76.50
802;DHT22;383;48.766;9.270;2023-02-28T06:30:51;1.10;75.70
802;DHT22;383;48.766;9.270;2023-02-28T06:33:18;1.20;75.00
802;DHT22;383;48.766;9.270;2023-02-28T06:35:46;1.20;74.90
802;DHT22;383;48.766;9.270;2023-02-28T06:38:13;1.20;75.00
802;DHT22;383;48.766;9.270;2023-02-28T06:40:40;1.20;75.00
802;DHT22;383;48.766;9.270;2023-02-28T06:43:08;1.20;74.60
802;DHT22;383;48.766;9.270;2023-02-28T06:45:34;1.30;74.20
802;DHT22;383;48.766;9.270;2023-02-28T06:48:01;1.30;74.00
802;DHT22;383;48.766;9.270;2023-02-28T06:50:28;1.20;74.10
802;DHT22;383;48.766;9.270;2023-02-28T06:52:56;1.20;74.00
802;DHT22;383;48.766;9.270;2023-02-28T06:55:23;1.20;74.10
802;DHT22;383;48.766;9.270;2023-02-28T06:57:49;1.30;74.10
802;DHT22;383;48.766;9.270;2023-02-28T07:00:18;1.30;73.30
802;DHT22;383;48.766;9.270;2023-02-28T07:02:45;1.20;74.20
802;DHT22;383;48.766;9.270;2023-02-28T07:05:12;1.30;74.00
802;DHT22;383;48.766;9.270;2023-02-28T07:07:39;1.40;74.10
802;DHT22;383;48.766;9.270;2023-02-28T07:10:10;1.40;74.00
802;DHT22;383;48.766;9.270;2023-02-28T07:12:37;1.40;73.00
802;DHT22;383;48.766;9.270;2023-02-28T07:15:05;1.50;73.40
802;DHT22;383;48.766;9.270;2023-02-28T07:17:33;1.50;72.10
802;DHT22;383;48.766;9.270;2023-02-28T07:20:00;1.50;72.30
802;DHT22;383;48.766;9.270;2023-02-28T07:22:26;1.60;72.80
802;DHT22;383;48.766;9.270;2023-02-28T07:24:54;1.70;72.40
802;DHT22;383;48.766;9.270;2023-02-28T07:27:20;1.70;72.50
802;DHT22;383;48.766;9.270;2023-02-28T07:29:51;1.80;71.30
802;DHT22;383;48.766;9.270;2023-02-28T07:32:18;1.80;71.20
802;DHT22;383;48.766;9.270;2023-02-28T07:34:46;1.80;70.70
802;DHT22;383;48.766;9.270;2023-02-28T07:37:14;1.70;71.10
802;DHT22;383;48.766;9.270;2023-02-28T07:39:40;1.80;71.60
802;DHT22;383;48.766;9.270;2023-02-28T07:42:08;1.70;70.90
802;DHT22;383;48.766;9.270;2023-02-28T07:44:37;1.70;70.90
802;DHT22;383;48.766;9.270;2023-02-28T07:47:06;1.70;71.50
802;DHT22;383;48.766;9.270;2023-02-28T07:49:33;1.70;70.90
802;DHT22;383;48.766;9.270;2023-02-28T07:52:02;1.80;71.30
802;DHT22;383;48.766;9.270;2023-02-28T07:54:29;1.80;72.10
802;DHT22;383;48.766;9.270;2023-02-28T07:56:56;1.90;70.90
802;DHT22;383;48.766;9.270;2023-02-28T07:59:22;2.00;69.60
802;DHT22;383;48.766;9.270;2023-02-28T08:01:49;2.00;70.50
802;DHT22;383;48.766;9.270;2023-02-28T08:04:16;1.90;70.00
802;DHT22;383;48.766;9.270;2023-02-28T08:06:43;1.90;70.40
802;DHT22;383;48.766;9.270;2023-02-28T08:09:11;1.80;70.80
802;DHT22;383;48.766;9.270;2023-02-28T08:11:38;1.90;70.70
802;DHT22;383;48.766;9.270;2023-02-28T08:14:05;2.00;70.90
802;DHT22;383;48.766;9.270;2023-02-28T08:16:32;2.10;70.40
802;DHT22;383;48.766;9.270;2023-02-28T08:18:59;2.20;70.10
802;DHT22;383;48.766;9.270;2023-02-28T08:21:25;2.20;69.50
802;DHT22;383;48.766;9.270;2023-02-28T08:23:52;2.10;70.00
802;DHT22;383;48.766;9.270;2023-02-28T08:26:23;2.10;70.00
802;DHT22;383;48.766;9.270;2023-02-28T08:28:50;2.20;70.10
802;DHT22;383;48.766;9.270;2023-02-28T08:31:18;2.10;69.60
802;DHT22;383;48.766;9.270;2023-02-28T08:33:45;2.10;69.50
802;DHT22;383;48.766;9.270;2023-02-28T08:36:13;2.10;69.90
802;DHT22;383;48.766;9.270;2023-02-28T08:38:40;2.10;70.00
802;DHT22;383;48.766;9.270;2023-02-28T08:41:09;2.10;70.40
802;DHT22;383;48.766;9.270;2023-02-28T08:43:38;2.20;69.90
802;DHT22;383;48.766;9.270;2023-02-28T08:46:06;2.20;70.10
802;DHT22;383;48.766;9.270;2023-02-28T08:48:35;2.30;70.10
802;DHT22;383;48.766;9.270;2023-02-28T08:51:05;2.30;68.80
802;DHT22;383;48.766;9.270;2023-02-28T08:53:33;2.30;69.20
802;DHT22;383;48.766;9.270;2023-02-28T08:56:01;2.40;69.50
802;DHT22;383;48.766;9.270;2023-02-28T08:58:28;2.50;69.30
802;DHT22;383;48.766;9.270;2023-02-28T09:00:56;2.70;68.70
802;DHT22;383;48.766;9.270;2023-02-28T09:03:23;2.70;67.90
802;DHT22;383;48.766;9.270;2023-02-28T09:05:55;2.70;68.20
802;DHT22;383;48.766;9.270;2023-02-28T09:08:22;2.70;67.60
802;DHT22;383;48.766;9.270;2023-02-28T09:10:49;2.70;67.80
802;DHT22;383;48.766;9.270;2023-02-28T09:13:16;2.80;67.50
802;DHT22;383;48.766;9.270;2023-02-28T09:15:43;2.80;67.10
802;DHT22;383;48.766;9.270;2023-02-28T09:18:11;2.90;66.20
802;DHT22;383;48.766;9.270;2023-02-28T09:20:38;3.00;67.10
802;DHT22;383;48.766;9.270;2023-02-28T09:23:05;3.10;67.00
802;DHT22;383;48.766;9.270;2023-02-28T09:25:32;3.20;65.40
802;DHT22;383;48.766;9.270;2023-02-28T09:27:59;3.30;65.60
802;DHT22;383;48.766;9.270;2023-02-28T09:30:26;3.30;65.80
802;DHT22;383;48.766;9.270;2023-02-28T09:32:53;3.50;64.90
802;DHT22;383;48.766;9.270;2023-02-28T09:35:22;3.60;64.70
802;DHT22;383;48.766;9.270;2023-02-28T09:37:50;3.60;65.10
802;DHT22;383;48.766;9.270;2023-02-28T09:40:18;3.70;65.10
802;DHT22;383;48.766;9.270;2023-02-28T09:42:47;3.60;64.10
802;DHT22;383;48.766;9.270;2023-02-28T09:45:20;3.70;63.90
802;DHT22;383;48.766;9.270;2023-02-28T09:47:48;3.90;63.90
802;DHT22;383;48.766;9.270;2023-02-28T09:50:27;4.00;64.20
802;DHT22;383;48.766;9.270;2023-02-28T09:52:55;4.10;63.40
802;DHT22;383;48.766;9.270;2023-02-28T09:55:28;4.20;61.80
802;DHT22;383;48.766;9.270;2023-02-28T09:57:55;4.20;63.00
802;DHT22;383;48.766;9.270;2023-02-28T10:00:29;4.30;62.50
802;DHT22;383;48.766;9.270;2023-02-28T10:03:11;4.30;62.90
802;DHT22;383;48.766;9.270;2023-02-28T10:05:47;4.40;61.80
802;DHT22;383;48.766;9.270;2023-02-28T10:08:17;4.30;60.80
802;DHT22;383;48.766;9.270;2023-02-28T10:10:48;4.20;62.20
802;DHT22;383;48.766;9.270;2023-02-28T10:13:21;4.20;62.30
802;DHT22;383;48.766;9.270;2023-02-28T10:15:54;4.30;61.50
802;DHT22;383;48.766;9.270;2023-02-28T10:18:25;4.20;60.60
802;DHT22;383;48.766;9.270;2023-02-28T10:20:55;4.30;63.30
802;DHT22;383;48.766;9.270;2023-02-28T10:23:26;4.30;63.40
802;DHT22;383;48.766;9.270;2023-02-28T10:25:57;4.40;62.30
802;DHT22;383;48.766;9.270;2023-02-28T10:28:25;4.50;61.40
802;DHT22;383;48.766;9.270;2023-02-28T15:00:51;7.20;53.60
802;DHT22;383;48.766;9.270;2023-02-28T15:03:20;7.10;53.60
802;DHT22;383;48.766;9.270;2023-02-28T15:05:56;7.20;53.90
802;DHT22;383;48.766;9.270;2023-02-28T15:08:24;7.10;53.60
802;DHT22;383;48.766;9.270;2023-02-28T15:10:54;7.10;53.80
802;DHT22;383;48.766;9.270;2023-02-28T15:13:22;7.20;53.90
802;DHT22;383;48.766;9.270;2023-02-28T15:15:53;7.10;53.40
802;DHT22;383;48.766;9.270;2023-02-28T15:18:25;7.10;53.60
802;DHT22;383;48.766;9.270;2023-02-28T15:20:57;7.10;54.40
802;DHT22;383;48.766;9.270;2023-02-28T15:23:25;7.10;54.00
802;DHT22;383;48.766;9.270;2023-02-28T15:25:53;7.10;54.30
802;DHT22;383;48.766;9.270;2023-02-28T15:28:21;7.10;54.30
802;DHT22;383;48.766;9.270;2023-02-28T15:30:57;7.10;54.30
802;DHT22;383;48.766;9.270;2023-02-28T15:33:25;7.10;54.40
802;DHT22;383;48.766;9.270;2023-02-28T15:36:05;7.10;54.10
802;DHT22;383;48.766;9.270;2023-02-28T15:38:34;7.00;53.90
802;DHT22;383;48.766;9.270;2023-02-28T15:41:02;7.00;54.30
802;DHT22;383;48.766;9.270;2023-02-28T15:43:34;7.00;54.30
802;DHT22;383;48.766;9.270;2023-02-28T15:46:02;7.00;54.70
802;DHT22;383;48.766;9.270;2023-02-28T15:48:31;6.90;55.10
802;DHT22;383;48.766;9.270;2023-02-28T15:51:02;6.90;55.00
802;DHT22;383;48.766;9.270;2023-02-28T15:53:36;6.80;54.90
802;DHT22;383;48.766;9.270;2023-02-28T15:56:06;6.70;55.60
802;DHT22;383;48.766;9.270;2023-02-28T15:58:38;6.70;56.40
802;DHT22;383;48.766;9.270;2023-02-28T16:01:16;6.70;55.90
802;DHT22;383;48.766;9.270;2023-02-28T16:03:45;6.70;55.70
802;DHT22;383;48.766;9.270;2023-02-28T16:06:30;6.70;56.60
802;DHT22;383;48.766;9.270;2023-02-28T16:08:59;6.60;55.90
802;DHT22;383;48.766;9.270;2023-02-28T16:11:26;6.50;56.20
802;DHT22;383;48.766;9.270;2023-02-28T16:13:53;6.40;57.10
802;DHT22;383;48.766;9.270;2023-02-28T16:16:22;6.40;58.10
802;DHT22;383;48.766;9.270;2023-02-28T16:18:50;6.40;57.10
802;DHT22;383;48.766;9.270;2023-02-28T16:21:17;6.30;57.00
802;DHT22;383;48.766;9.270;2023-02-28T16:23:44;6.20;56.90
802;DHT22;383;48.766;9.270;2023-02-28T16:26:18;6.10;57.40
802;DHT22;383;48.766;9.270;2023-02-28T16:28:46;6.10;57.70
802;DHT22;383;48.766;9.270;2023-02-28T16:31:13;6.10;57.50
802;DHT22;383;48.766;9.270;2023-02-28T16:33:42;6.10;57.80
802;DHT22;383;48.766;9.270;2023-02-28T16:36:12;6.10;57.20
802;DHT22;383;48.766;9.270;2023-02-28T16:38:39;6.10;57.60
802;DHT22;383;48.766;9.270;2023-02-28T16:41:06;6.00;58.00
802;DHT22;383;48.766;9.270;2023-02-28T16:43:34;5.90;58.10
802;DHT22;383;48.766;9.270;2023-02-28T16:46:01;5.80;58.60
802;DHT22;383;48.766;9.270;2023-02-28T16:48:29;5.80;58.80
802;DHT22;383;48.766;9.270;2023-02-28T16:50:56;5.80;59.00
802;DHT22;383;48.766;9.270;2023-02-28T16:53:23;5.70;59.20
802;DHT22;383;48.766;9.270;2023-02-28T16:55:50;5.60;59.20
802;DHT22;383;48.766;9.270;2023-02-28T16:58:17;5.60;59.30
802;DHT22;383;48.766;9.270;2023-02-28T17:00:48;5.50;60.20
802;DHT22;383;48.766;9.270;2023-02-28T17:03:22;5.40;60.10
802;DHT22;383;48.766;9.270;2023-02-28T17:05:49;5.30;60.40
802;DHT22;383;48.766;9.270;2023-02-28T17:08:16;5.30;60.50
802;DHT22;383;48.766;9.270;2023-02-28T17:10:42;5.20;60.60
802;DHT22;383;48.766;9.270;2023-02-28T17:13:09;5.20;60.90
802;DHT22;383;48.766;9.270;2023-02-28T17:15:37;5.10;61.30
802;DHT22;383;48.766;9.270;2023-02-28T17:18:06;5.10;61.70
802;DHT22;383;48.766;9.270;2023-02-28T17:20:35;5.00;62.10
802;DHT22;383;48.766;9.270;2023-02-28T17:23:01;4.90;62.50
802;DHT22;383;48.766;9.270;2023-02-28T17:25:28;4.90;62.90
802;DHT22;383;48.766;9.270;2023-02-28T17:27:55;4.80;62.30
802;DHT22;383;48.766;9.270;2023-02-28T17:30:24;4.80;63.30
802;DHT22;383;48.766;9.270;2023-02-28T17:32:52;4.70;63.30
802;DHT22;383;48.766;9.270;2023-02-28T17:35:20;4.60;64.20
802;DHT22;383;48.766;9.270;2023-02-28T17:37:47;4.50;64.60
802;DHT22;383;48.766;9.270;2023-02-28T17:40:19;4.40;65.00
802;DHT22;383;48.766;9.270;2023-02-28T17:42:46;4.30;65.50
802;DHT22;383;48.766;9.270;2023-02-28T17:45:14;4.20;65.60
802;DHT22;383;48.766;9.270;2023-02-28T17:47:43;4.10;66.00
802;DHT22;383;48.766;9.270;2023-02-28T17:50:14;4.00;66.40
802;DHT22;383;48.766;9.270;2023-02-28T17:52:43;3.90;66.80
802;DHT22;383;48.766;9.270;2023-02-28T17:55:10;3.80;67.20
802;DHT22;383;48.766;9.270;2023-02-28T17:57:37;3.70;67.40
802;DHT22;383;48.766;9.270;2023-02-28T18:00:05;3.60;67.60
802;DHT22;383;48.766;9.270;2023-02-28T18:02:32;3.50;68.30
802;DHT22;383;48.766;9.270;2023-02-28T18:04:59;3.50;68.90
802;DHT22;383;48.766;9.270;2023-02-28T18:07:25;3.40;69.10
802;DHT22;383;48.766;9.270;2023-02-28T18:09:53;3.30;69.50
802;DHT22;383;48.766;9.270;2023-02-28T18:12:20;3.20;70.70
802;DHT22;383;48.766;9.270;2023-02-28T18:14:47;3.10;70.70
802;DHT22;383;48.766;9.270;2023-02-28T18:17:14;3.10;71.20
802;DHT22;383;48.766;9.270;2023-02-28T18:29:31;3.00;71.30
802;DHT22;383;48.766;9.270;2023-02-28T18:31:58;2.60;73.40
802;DHT22;383;48.766;9.270;2023-02-28T18:34:26;2.60;73.70
802;DHT22;383;48.766;9.270;2023-02-28T18:36:55;2.60;73.30
802;DHT22;383;48.766;9.270;2023-02-28T18:39:22;2.60;73.40
802;DHT22;383;48.766;9.270;2023-02-28T18:41:49;2.60;73.70
802;DHT22;383;48.766;9.270;2023-02-28T18:44:17;2.50;73.60
802;DHT22;383;48.766;9.270;2023-02-28T18:46:44;2.50;73.80
802;DHT22;383;48.766;9.270;2023-02-28T18:49:10;2.40;74.10
802;DHT22;383;48.766;9.270;2023-02-28T18:51:37;2.40;74.20
802;DHT22;383;48.766;9.270;2023-02-28T18:54:04;2.30;74.80
802;DHT22;383;48.766;9.270;2023-02-28T18:58:58;2.20;75.00
802;DHT22;383;48.766;9.270;2023-02-28T19:01:27;2.10;75.80
802;DHT22;383;48.766;9.270;2023-02-28T19:03:58;2.10;76.00
802;DHT22;383;48.766;9.270;2023-02-28T19:06:26;2.00;76.10
802;DHT22;383;48.766;9.270;2023-02-28T20:25:16;1.90;76.30
802;DHT22;383;48.766;9.270;2023-02-28T20:27:44;1.30;80.20
802;DHT22;383;48.766;9.270;2023-02-28T20:30:11;1.30;80.30
802;DHT22;383;48.766;9.270;2023-02-28T20:32:38;1.30;80.00
802;DHT22;383;48.766;9.270;2023-02-28T20:35:05;1.30;79.90
802;DHT22;383;48.766;9.270;2023-02-28T20:37:33;1.40;79.50
802;DHT22;383;48.766;9.270;2023-02-28T20:39:59;1.40;79.10
802;DHT22;383;48.766;9.270;2023-02-28T20:42:28;1.40;79.50
802;DHT22;383;48.766;9.270;2023-02-28T20:44:56;1.30;79.70
802;DHT22;383;48.766;9.270;2023-02-28T20:47:23;1.30;79.90
802;DHT22;383;48.766;9.270;2023-02-28T20:49:50;1.30;79.90
802;DHT22;383;48.766;9.270;2023-02-28T20:52:16;1.30;80.00
802;DHT22;383;48.766;9.270;2023-02-28T20:54:43;1.30;79.90
802;DHT22;383;48.766;9.270;2023-02-28T20:57:10;1.30;79.80
802;DHT22;383;48.766;9.270;2023-02-28T20:59:36;1.30;80.00
802;DHT22;383;48.766;9.270;2023-02-28T21:02:05;1.20;80.20
802;DHT22;383;48.766;9.270;2023-02-28T21:04:32;1.20;80.30
802;DHT22;383;48.766;9.270;2023-02-28T21:06:59;1.10;80.20
802;DHT22;383;48.766;9.270;2023-02-28T21:09:28;1.10;80.40
802;DHT22;383;48.766;9.270;2023-02-28T21:11:55;1.10;80.40
802;DHT22;383;48.766;9.270;2023-02-28T21:14:22;1.10;80.60
802;DHT22;383;48.766;9.270;2023-02-28T21:16:49;1.10;81.10
802;DHT22;383;48.766;9.270;2023-02-28T21:19:17;1.00;81.00
802;DHT22;383;48.766;9.270;2023-02-28T21:21:44;1.00;81.20
802;DHT22;383;48.766;9.270;2023-02-28T21:24:14;1.00;81.50
802;DHT22;383;48.766;9.270;2023-02-28T21:26:41;0.90;81.20
802;DHT22;383;48.766;9.270;2023-02-28T21:29:09;0.90;81.50
802;DHT22;383;48.766;9.270;2023-02-28T21:31:37;0.80;81.90
802;DHT22;383;48.766;9.270;2023-02-28T21:34:06;0.80;81.80
802;DHT22;383;48.766;9.270;2023-02-28T21:36:37;0.80;82.00
802;DHT22;383;48.766;9.270;2023-02-28T21:39:06;0.80;82.30
802;DHT22;383;48.766;9.270;2023-02-28T21:41:34;0.80;82.30
802;DHT22;383;48.766;9.270;2023-02-28T21:44:01;0.80;82.30
802;DHT22;383;48.766;9.270;2023-02-28T21:46:29;0.70;82.40
802;DHT22;383;48.766;9.270;2023-02-28T21:48:56;0.70;82.40
802;DHT22;383;48.766;9.270;2023-02-28T21:51:25;0.70;82.00
802;DHT22;383;48.766;9.270;2023-02-28T21:53:53;0.70;81.90
802;DHT22;383;48.766;9.270;2023-02-28T21:56:24;0.70;81.90
802;DHT22;383;48.766;9.270;2023-02-28T21:58:51;0.60;82.30
802;DHT22;383;48.766;9.270;2023-02-28T22:01:25;0.60;82.00
802;DHT22;383;48.766;9.270;2023-02-28T22:03:53;0.60;82.30
802;DHT22;383;48.766;9.270;2023-02-28T22:06:21;0.50;82.40
802;DHT22;383;48.766;9.270;2023-02-28T22:08:53;0.60;82.70
802;DHT22;383;48.766;9.270;2023-02-28T22:11:21;0.50;82.70
802;DHT22;383;48.766;9.270;2023-02-28T22:13:49;0.50;83.10
802;DHT22;383;48.766;9.270;2023-02-28T22:16:18;0.50;83.20
802;DHT22;383;48.766;9.270;2023-02-28T22:18:45;0.50;83.10
802;DHT22;383;48.766;9.270;2023-02-28T22:21:13;0.50;83.20
802;DHT22;383;48.766;9.270;2023-02-28T22:23:41;0.40;83.50
802;DHT22;383;48.766;9.270;2023-02-28T22:26:11;0.40;83.60
802;DHT22;383;48.766;9.270;2023-02-28T22:28:38;0.40;83.70
802;DHT22;383;48.766;9.270;2023-02-28T22:31:13;0.40;83.70
802;DHT22;383;48.766;9.270;2023-02-28T22:33:40;0.40;83.70
802;DHT22;383;48.766;9.270;2023-02-28T22:36:08;0.30;83.70
802;DHT22;383;48.766;9.270;2023-02-28T22:38:35;0.30;84.00
802;DHT22;383;48.766;9.270;2023-02-28T22:41:02;0.30;84.00
802;DHT22;383;48.766;9.270;2023-02-28T22:43:31;0.30;84.30
802;DHT22;383;48.766;9.270;2023-02-28T22:46:00;0.30;84.50
802;DHT22;383;48.766;9.270;2023-02-28T22:48:28;0.30;84.00
802;DHT22;383;48.766;9.270;2023-02-28T22:51:00;0.30;84.00
802;DHT22;383;48.766;9.270;2023-02-28T22:53:29;0.20;84.50
802;DHT22;383;48.766;9.270;2023-02-28T22:55:56;0.20;84.50
802;DHT22;383;48.766;9.270;2023-02-28T22:58:24;0.20;84.80
802;DHT22;383;48.766;9.270;2023-02-28T23:00:52;0.10;84.90
802;DHT22;383;48.766;9.270;2023-02-28T23:03:21;0.10;84.90
802;DHT22;383;48.766;9.270;2023-02-28T23:05:48;0.10;85.10